sensor_id;sensor_type;location;lat;lon;timestamp;P1;durP1;ratioP1;P2;durP2;ratioP2
64052;SDS011;50299;49.524;8.536;2022-08-04T00:00:36;3.67;;;3.25;;
64052;SDS011;50299;49.524;8.536;2022-08-04T00:03:12;4.05;;;3.40;;
64052;SDS011;50299;49.524;8.536;2022-08-04T00:05:51;3.78;;;3.10;;
64052;SDS011;50299;49.524;8.536;2022-08-04T00:08:30;3.50;;;3.30;;
64052;SDS011;50299;49.524;8.536;2022-08-04T00:11:03;4.00;;;3.65;;
64052;SDS011;50299;49.524;8.536;2022-08-04T00:13:41;4.05;;;3.40;;
64052;SDS011;50299;49.524;8.536;2022-08-04T00:19:02;5.53;;;3.83;;
64052;SDS011;50299;49.524;8.536;2022-08-04T00:21:33;4.72;;;3.30;;
64052;SDS011;50299;49.524;8.536;2022-08-04T00:24:03;3.60;;;3.30;;
64052;SDS011;50299;49.524;8.536;2022-08-04T00:26:37;4.05;;;3.38;;
64052;SDS011;50299;49.524;8.536;2022-08-04T00:29:06;4.43;;;3.28;;
64052;SDS011;50299;49.524;8.536;2022-08-04T00:31:32;6.25;;;3.55;;
64052;SDS011;50299;49.524;8.536;2022-08-04T00:34:19;3.50;;;3.20;;
64052;SDS011;50299;49.524;8.536;2022-08-04T00:36:49;7.03;;;3.50;;
64052;SDS011;50299;49.524;8.536;2022-08-04T00:39:16;3.67;;;3.38;;
64052;SDS011;50299;49.524;8.536;2022-08-04T00:41:51;3.70;;;3.40;;
64052;SDS011;50299;49.524;8.536;2022-08-04T00:44:44;3.33;;;3.00;;
64052;SDS011;50299;49.524;8.536;2022-08-04T00:48:06;3.70;;;3.40;;
64052;SDS011;50299;49.524;8.536;2022-08-04T00:53:48;4.43;;;4.07;;
64052;SDS011;50299;49.524;8.536;2022-08-04T00:56:36;4.15;;;3.63;;
64052;SDS011;50299;49.524;8.536;2022-08-04T00:59:43;3.63;;;3.35;;
64052;SDS011;50299;49.524;8.536;2022-08-04T01:02:16;3.53;;;3.22;;
64052;SDS011;50299;49.524;8.536;2022-08-04T01:05:04;6.47;;;3.53;;
64052;SDS011;50299;49.524;8.536;2022-08-04T01:08:07;4.18;;;3.60;;
64052;SDS011;50299;49.524;8.536;2022-08-04T01:13:47;4.00;;;3.70;;
64052;SDS011;50299;49.524;8.536;2022-08-04T01:16:42;4.50;;;3.53;;
64052;SDS011;50299;49.524;8.536;2022-08-04T01:22:17;3.60;;;3.35;;
64052;SDS011;50299;49.524;8.536;2022-08-04T01:28:27;6.22;;;3.60;;
64052;SDS011;50299;49.524;8.536;2022-08-04T01:31:23;3.85;;;3.38;;
64052;SDS011;50299;49.524;8.536;2022-08-04T01:33:56;4.60;;;3.15;;
64052;SDS011;50299;49.524;8.536;2022-08-04T01:36:32;4.38;;;3.25;;
64052;SDS011;50299;49.524;8.536;2022-08-04T01:39:02;3.78;;;3.47;;
64052;SDS011;50299;49.524;8.536;2022-08-04T01:41:52;3.28;;;3.08;;
64052;SDS011;50299;49.524;8.536;2022-08-04T01:44:23;4.07;;;3.13;;
64052;SDS011;50299;49.524;8.536;2022-08-04T01:49:19;4.32;;;3.78;;
64052;SDS011;50299;49.524;8.536;2022-08-04T01:51:49;3.83;;;3.42;;
64052;SDS011;50299;49.524;8.536;2022-08-04T01:54:18;3.85;;;3.55;;
64052;SDS011;50299;49.524;8.536;2022-08-04T01:56:46;3.92;;;3.53;;
64052;SDS011;50299;49.524;8.536;2022-08-04T01:59:17;3.70;;;3.28;;
64052;SDS011;50299;49.524;8.536;2022-08-04T02:01:44;3.85;;;3.50;;
64052;SDS011;50299;49.524;8.536;2022-08-04T02:04:16;5.00;;;3.40;;
64052;SDS011;50299;49.524;8.536;2022-08-04T02:07:01;4.40;;;3.67;;
64052;SDS011;50299;49.524;8.536;2022-08-04T02:18:04;4.35;;;3.50;;
64052;SDS011;50299;49.524;8.536;2022-08-04T02:20:33;3.80;;;3.50;;
64052;SDS011;50299;49.524;8.536;2022-08-04T02:23:08;4.20;;;3.80;;
64052;SDS011;50299;49.524;8.536;2022-08-04T02:25:45;3.80;;;3.40;;
64052;SDS011;50299;49.524;8.536;2022-08-04T02:34:20;4.07;;;3.78;;
64052;SDS011;50299;49.524;8.536;2022-08-04T02:36:41;5.38;;;3.97;;
64052;SDS011;50299;49.524;8.536;2022-08-04T02:39:09;5.50;;;4.65;;
64052;SDS011;50299;49.524;8.536;2022-08-04T02:41:37;4.53;;;4.13;;
64052;SDS011;50299;49.524;8.536;2022-08-04T02:44:08;4.93;;;4.43;;
64052;SDS011;50299;49.524;8.536;2022-08-04T02:46:36;4.05;;;3.70;;
64052;SDS011;50299;49.524;8.536;2022-08-04T02:49:07;4.35;;;4.05;;
64052;SDS011;50299;49.524;8.536;2022-08-04T02:51:36;4.75;;;3.60;;
64052;SDS011;50299;49.524;8.536;2022-08-04T02:54:06;4.80;;;4.40;;
64052;SDS011;50299;49.524;8.536;2022-08-04T02:56:34;4.30;;;4.00;;
64052;SDS011;50299;49.524;8.536;2022-08-04T02:59:08;4.18;;;3.88;;
64052;SDS011;50299;49.524;8.536;2022-08-04T03:01:36;4.80;;;4.10;;
64052;SDS011;50299;49.524;8.536;2022-08-04T03:04:31;4.50;;;4.10;;
64052;SDS011;50299;49.524;8.536;2022-08-04T03:17:37;4.35;;;3.95;;
64052;SDS011;50299;49.524;8.536;2022-08-04T03:20:55;8.75;;;3.65;;
64052;SDS011;50299;49.524;8.536;2022-08-04T03:40:33;6.15;;;4.22;;
64052;SDS011;50299;49.524;8.536;2022-08-04T03:57:44;5.03;;;4.25;;
64052;SDS011;50299;49.524;8.536;2022-08-04T04:00:29;4.65;;;3.45;;
64052;SDS011;50299;49.524;8.536;2022-08-04T04:14:58;6.20;;;4.45;;
64052;SDS011;50299;49.524;8.536;2022-08-04T04:28:56;4.68;;;4.28;;
64052;SDS011;50299;49.524;8.536;2022-08-04T04:32:02;4.50;;;4.10;;
64052;SDS011;50299;49.524;8.536;2022-08-04T04:34:55;5.65;;;4.55;;
64052;SDS011;50299;49.524;8.536;2022-08-04T04:37:54;5.38;;;4.88;;
64052;SDS011;50299;49.524;8.536;2022-08-04T04:41:02;4.95;;;4.20;;
64052;SDS011;50299;49.524;8.536;2022-08-04T04:46:41;4.85;;;4.35;;
64052;SDS011;50299;49.524;8.536;2022-08-04T04:49:16;4.20;;;3.80;;
64052;SDS011;50299;49.524;8.536;2022-08-04T04:52:02;5.43;;;4.75;;
64052;SDS011;50299;49.524;8.536;2022-08-04T04:57:30;4.57;;;4.18;;
64052;SDS011;50299;49.524;8.536;2022-08-04T05:00:24;4.38;;;4.05;;
64052;SDS011;50299;49.524;8.536;2022-08-04T05:11:44;11.57;;;5.15;;
64052;SDS011;50299;49.524;8.536;2022-08-04T05:14:17;7.65;;;4.65;;
64052;SDS011;50299;49.524;8.536;2022-08-04T05:17:24;6.75;;;4.47;;
64052;SDS011;50299;49.524;8.536;2022-08-04T05:19:59;5.72;;;4.60;;
64052;SDS011;50299;49.524;8.536;2022-08-04T05:22:54;4.90;;;4.07;;
64052;SDS011;50299;49.524;8.536;2022-08-04T05:25:26;8.27;;;4.57;;
64052;SDS011;50299;49.524;8.536;2022-08-04T05:28:04;5.20;;;4.07;;
64052;SDS011;50299;49.524;8.536;2022-08-04T05:30:40;5.20;;;4.50;;
64052;SDS011;50299;49.524;8.536;2022-08-04T05:33:23;5.97;;;4.40;;
64052;SDS011;50299;49.524;8.536;2022-08-04T05:35:56;5.45;;;4.30;;
64052;SDS011;50299;49.524;8.536;2022-08-04T05:38:45;4.43;;;4.03;;
64052;SDS011;50299;49.524;8.536;2022-08-04T05:41:16;8.25;;;4.13;;
64052;SDS011;50299;49.524;8.536;2022-08-04T05:43:42;4.32;;;4.03;;
64052;SDS011;50299;49.524;8.536;2022-08-04T05:46:10;7.38;;;4.10;;
64052;SDS011;50299;49.524;8.536;2022-08-04T05:48:39;6.32;;;4.35;;
64052;SDS011;50299;49.524;8.536;2022-08-04T05:51:08;7.38;;;4.20;;
64052;SDS011;50299;49.524;8.536;2022-08-04T05:53:39;6.65;;;4.60;;
64052;SDS011;50299;49.524;8.536;2022-08-04T05:56:09;6.63;;;4.47;;
64052;SDS011;50299;49.524;8.536;2022-08-04T05:58:38;9.40;;;4.13;;
64052;SDS011;50299;49.524;8.536;2022-08-04T06:01:05;5.00;;;4.05;;
64052;SDS011;50299;49.524;8.536;2022-08-04T06:06:00;7.53;;;3.97;;
64052;SDS011;50299;49.524;8.536;2022-08-04T06:08:28;5.45;;;3.80;;
64052;SDS011;50299;49.524;8.536;2022-08-04T06:10:56;5.90;;;3.70;;
64052;SDS011;50299;49.524;8.536;2022-08-04T06:13:32;4.22;;;3.83;;
64052;SDS011;50299;49.524;8.536;2022-08-04T06:16:15;5.15;;;4.13;;
64052;SDS011;50299;49.524;8.536;2022-08-04T06:18:56;3.88;;;3.58;;
64052;SDS011;50299;49.524;8.536;2022-08-04T06:21:46;3.53;;;3.22;;
64052;SDS011;50299;49.524;8.536;2022-08-04T06:24:16;4.82;;;3.92;;
64052;SDS011;50299;49.524;8.536;2022-08-04T06:26:46;4.78;;;3.47;;
64052;SDS011;50299;49.524;8.536;2022-08-04T06:29:16;4.82;;;3.63;;
64052;SDS011;50299;49.524;8.536;2022-08-04T06:32:03;4.15;;;3.63;;
64052;SDS011;50299;49.524;8.536;2022-08-04T06:34:59;7.47;;;3.67;;
64052;SDS011;50299;49.524;8.536;2022-08-04T06:37:27;7.68;;;3.80;;
64052;SDS011;50299;49.524;8.536;2022-08-04T06:40:09;7.55;;;3.47;;
64052;SDS011;50299;49.524;8.536;2022-08-04T06:42:58;6.82;;;4.18;;
64052;SDS011;50299;49.524;8.536;2022-08-04T06:45:32;7.47;;;4.35;;
64052;SDS011;50299;49.524;8.536;2022-08-04T06:48:01;9.77;;;4.60;;
64052;SDS011;50299;49.524;8.536;2022-08-04T06:50:30;9.82;;;4.75;;
64052;SDS011;50299;49.524;8.536;2022-08-04T06:53:19;13.23;;;4.30;;
64052;SDS011;50299;49.524;8.536;2022-08-04T06:55:46;11.52;;;4.38;;
64052;SDS011;50299;49.524;8.536;2022-08-04T06:58:14;10.95;;;3.95;;
64052;SDS011;50299;49.524;8.536;2022-08-04T07:00:42;9.27;;;3.70;;
64052;SDS011;50299;49.524;8.536;2022-08-04T07:03:10;10.55;;;3.78;;
64052;SDS011;50299;49.524;8.536;2022-08-04T07:05:39;8.32;;;4.03;;
64052;SDS011;50299;49.524;8.536;2022-08-04T07:08:06;17.27;;;4.38;;
64052;SDS011;50299;49.524;8.536;2022-08-04T07:10:36;7.95;;;3.00;;
64052;SDS011;50299;49.524;8.536;2022-08-04T07:13:03;6.50;;;3.35;;
64052;SDS011;50299;49.524;8.536;2022-08-04T07:15:32;10.50;;;3.40;;
64052;SDS011;50299;49.524;8.536;2022-08-04T07:18:01;11.88;;;3.50;;
64052;SDS011;50299;49.524;8.536;2022-08-04T07:20:30;6.25;;;3.03;;
64052;SDS011;50299;49.524;8.536;2022-08-04T07:23:02;8.02;;;3.15;;
64052;SDS011;50299;49.524;8.536;2022-08-04T07:25:35;5.88;;;3.40;;
64052;SDS011;50299;49.524;8.536;2022-08-04T07:28:23;7.07;;;3.03;;
64052;SDS011;50299;49.524;8.536;2022-08-04T07:30:51;5.07;;;2.85;;
64052;SDS011;50299;49.524;8.536;2022-08-04T07:33:21;3.72;;;2.60;;
64052;SDS011;50299;49.524;8.536;2022-08-04T07:35:48;6.57;;;2.72;;
64052;SDS011;50299;49.524;8.536;2022-08-04T07:38:39;4.85;;;2.60;;
64052;SDS011;50299;49.524;8.536;2022-08-04T07:41:25;3.97;;;2.60;;
64052;SDS011;50299;49.524;8.536;2022-08-04T07:44:03;6.97;;;2.60;;
64052;SDS011;50299;49.524;8.536;2022-08-04T07:46:31;2.65;;;2.42;;
64052;SDS011;50299;49.524;8.536;2022-08-04T07:48:58;3.55;;;2.80;;
64052;SDS011;50299;49.524;8.536;2022-08-04T07:51:26;8.35;;;2.85;;
64052;SDS011;50299;49.524;8.536;2022-08-04T07:53:53;6.70;;;2.88;;
64052;SDS011;50299;49.524;8.536;2022-08-04T07:56:22;6.13;;;2.65;;
64052;SDS011;50299;49.524;8.536;2022-08-04T07:58:49;4.60;;;2.67;;
64052;SDS011;50299;49.524;8.536;2022-08-04T08:01:16;5.78;;;2.70;;
64052;SDS011;50299;49.524;8.536;2022-08-04T08:03:44;4.80;;;2.85;;
64052;SDS011;50299;49.524;8.536;2022-08-04T08:06:11;3.83;;;2.50;;
64052;SDS011;50299;49.524;8.536;2022-08-04T08:08:58;13.40;;;2.78;;
64052;SDS011;50299;49.524;8.536;2022-08-04T08:11:40;5.13;;;2.35;;
64052;SDS011;50299;49.524;8.536;2022-08-04T08:14:27;2.50;;;2.28;;
64052;SDS011;50299;49.524;8.536;2022-08-04T08:19:23;12.18;;;3.22;;
64052;SDS011;50299;49.524;8.536;2022-08-04T08:21:50;4.53;;;2.00;;
64052;SDS011;50299;49.524;8.536;2022-08-04T08:24:29;2.53;;;1.80;;
64052;SDS011;50299;49.524;8.536;2022-08-04T08:27:00;3.55;;;2.03;;
64052;SDS011;50299;49.524;8.536;2022-08-04T08:29:29;4.57;;;2.17;;
64052;SDS011;50299;49.524;8.536;2022-08-04T08:31:59;2.50;;;2.30;;
64052;SDS011;50299;49.524;8.536;2022-08-04T08:34:33;3.17;;;1.90;;
64052;SDS011;50299;49.524;8.536;2022-08-04T08:37:04;3.63;;;2.00;;
64052;SDS011;50299;49.524;8.536;2022-08-04T08:40:28;3.30;;;2.40;;
64052;SDS011;50299;49.524;8.536;2022-08-04T08:42:51;4.72;;;2.53;;
64052;SDS011;50299;49.524;8.536;2022-08-04T09:12:18;2.92;;;2.33;;
64052;SDS011;50299;49.524;8.536;2022-08-04T09:14:54;4.70;;;2.58;;
64052;SDS011;50299;49.524;8.536;2022-08-04T09:17:29;3.88;;;2.50;;
64052;SDS011;50299;49.524;8.536;2022-08-04T09:20:06;12.32;;;3.00;;
64052;SDS011;50299;49.524;8.536;2022-08-04T09:22:59;20.55;;;3.78;;
64052;SDS011;50299;49.524;8.536;2022-08-04T09:25:53;5.07;;;2.38;;
64052;SDS011;50299;49.524;8.536;2022-08-04T09:28:40;4.57;;;2.78;;
64052;SDS011;50299;49.524;8.536;2022-08-04T09:31:21;5.65;;;2.92;;
64052;SDS011;50299;49.524;8.536;2022-08-04T09:34:18;3.60;;;2.45;;
64052;SDS011;50299;49.524;8.536;2022-08-04T09:37:01;6.22;;;2.63;;
64052;SDS011;50299;49.524;8.536;2022-08-04T09:39:36;5.00;;;2.67;;
64052;SDS011;50299;49.524;8.536;2022-08-04T09:45:26;4.20;;;2.55;;
64052;SDS011;50299;49.524;8.536;2022-08-04T09:48:17;2.60;;;2.40;;
64052;SDS011;50299;49.524;8.536;2022-08-04T09:50:52;2.83;;;2.17;;
64052;SDS011;50299;49.524;8.536;2022-08-04T09:59:17;7.57;;;2.65;;
64052;SDS011;50299;49.524;8.536;2022-08-04T10:01:52;4.00;;;2.15;;
64052;SDS011;50299;49.524;8.536;2022-08-04T10:04:26;2.40;;;2.20;;
64052;SDS011;50299;49.524;8.536;2022-08-04T10:07:15;4.47;;;2.33;;
64052;SDS011;50299;49.524;8.536;2022-08-04T10:13:49;3.53;;;2.58;;
64052;SDS011;50299;49.524;8.536;2022-08-04T10:25:26;4.35;;;2.50;;
64052;SDS011;50299;49.524;8.536;2022-08-04T10:28:25;5.15;;;2.47;;
64052;SDS011;50299;49.524;8.536;2022-08-04T10:30:55;4.90;;;2.58;;
64052;SDS011;50299;49.524;8.536;2022-08-04T10:33:32;4.07;;;2.17;;
64052;SDS011;50299;49.524;8.536;2022-08-04T10:36:08;3.10;;;2.22;;
64052;SDS011;50299;49.524;8.536;2022-08-04T10:41:32;3.47;;;2.33;;
64052;SDS011;50299;49.524;8.536;2022-08-04T10:47:23;3.40;;;2.20;;
64052;SDS011;50299;49.524;8.536;2022-08-04T10:49:45;5.20;;;2.30;;
64052;SDS011;50299;49.524;8.536;2022-08-04T10:57:51;4.30;;;2.47;;
64052;SDS011;50299;49.524;8.536;2022-08-04T11:00:23;4.57;;;2.47;;
64052;SDS011;50299;49.524;8.536;2022-08-04T11:05:31;2.70;;;2.08;;
64052;SDS011;50299;49.524;8.536;2022-08-04T11:08:24;6.22;;;2.60;;
64052;SDS011;50299;49.524;8.536;2022-08-04T11:16:43;4.28;;;2.33;;
64052;SDS011;50299;49.524;8.536;2022-08-04T11:19:29;4.50;;;2.08;;
64052;SDS011;50299;49.524;8.536;2022-08-04T11:22:17;2.28;;;1.92;;
64052;SDS011;50299;49.524;8.536;2022-08-04T11:24:54;2.95;;;2.15;;
64052;SDS011;50299;49.524;8.536;2022-08-04T11:27:28;3.38;;;2.20;;
64052;SDS011;50299;49.524;8.536;2022-08-04T11:30:31;3.20;;;2.10;;
64052;SDS011;50299;49.524;8.536;2022-08-04T11:35:49;2.17;;;1.98;;
64052;SDS011;50299;49.524;8.536;2022-08-04T11:41:36;2.15;;;1.50;;
64052;SDS011;50299;49.524;8.536;2022-08-04T11:44:04;3.08;;;1.83;;
64052;SDS011;50299;49.524;8.536;2022-08-04T11:46:42;2.70;;;1.80;;
64052;SDS011;50299;49.524;8.536;2022-08-04T11:49:21;1.50;;;1.40;;
64052;SDS011;50299;49.524;8.536;2022-08-04T11:51:57;1.23;;;1.13;;
64052;SDS011;50299;49.524;8.536;2022-08-04T11:54:26;2.08;;;1.30;;
64052;SDS011;50299;49.524;8.536;2022-08-04T11:56:53;4.05;;;1.75;;
64052;SDS011;50299;49.524;8.536;2022-08-04T11:59:21;1.40;;;1.40;;
64052;SDS011;50299;49.524;8.536;2022-08-04T12:01:55;1.85;;;1.67;;
64052;SDS011;50299;49.524;8.536;2022-08-04T12:04:54;2.55;;;1.83;;
64052;SDS011;50299;49.524;8.536;2022-08-04T12:13:23;2.63;;;1.73;;
64052;SDS011;50299;49.524;8.536;2022-08-04T12:16:16;1.75;;;1.60;;
64052;SDS011;50299;49.524;8.536;2022-08-04T12:18:56;2.50;;;1.50;;
64052;SDS011;50299;49.524;8.536;2022-08-04T12:21:34;1.95;;;1.73;;
64052;SDS011;50299;49.524;8.536;2022-08-04T12:29:55;1.85;;;1.75;;
64052;SDS011;50299;49.524;8.536;2022-08-04T12:32:47;2.47;;;1.80;;
64052;SDS011;50299;49.524;8.536;2022-08-04T12:35:22;3.47;;;1.60;;
64052;SDS011;50299;49.524;8.536;2022-08-04T12:40:32;1.40;;;1.30;;
64052;SDS011;50299;49.524;8.536;2022-08-04T12:46:08;3.08;;;1.60;;
64052;SDS011;50299;49.524;8.536;2022-08-04T12:48:37;2.83;;;1.75;;
64052;SDS011;50299;49.524;8.536;2022-08-04T12:51:07;2.55;;;1.70;;
64052;SDS011;50299;49.524;8.536;2022-08-04T12:53:55;3.78;;;1.92;;
64052;SDS011;50299;49.524;8.536;2022-08-04T12:56:24;3.33;;;1.60;;
64052;SDS011;50299;49.524;8.536;2022-08-04T12:58:58;4.72;;;1.95;;
64052;SDS011;50299;49.524;8.536;2022-08-04T13:01:27;2.72;;;1.63;;
64052;SDS011;50299;49.524;8.536;2022-08-04T13:04:22;3.30;;;1.67;;
64052;SDS011;50299;49.524;8.536;2022-08-04T13:07:06;2.25;;;1.65;;
64052;SDS011;50299;49.524;8.536;2022-08-04T13:09:57;2.47;;;1.70;;
64052;SDS011;50299;49.524;8.536;2022-08-04T13:12:26;3.92;;;1.85;;
64052;SDS011;50299;49.524;8.536;2022-08-04T13:14:59;3.80;;;2.10;;
64052;SDS011;50299;49.524;8.536;2022-08-04T13:17:48;2.28;;;1.80;;
64052;SDS011;50299;49.524;8.536;2022-08-04T13:20:16;3.08;;;1.92;;
64052;SDS011;50299;49.524;8.536;2022-08-04T13:22:56;2.42;;;1.60;;
64052;SDS011;50299;49.524;8.536;2022-08-04T13:25:41;3.70;;;1.98;;
64052;SDS011;50299;49.524;8.536;2022-08-04T13:28:29;2.55;;;1.60;;
64052;SDS011;50299;49.524;8.536;2022-08-04T13:31:00;3.83;;;1.77;;
64052;SDS011;50299;49.524;8.536;2022-08-04T13:33:31;1.77;;;1.67;;
64052;SDS011;50299;49.524;8.536;2022-08-04T13:36:00;5.35;;;1.70;;
64052;SDS011;50299;49.524;8.536;2022-08-04T13:38:28;4.35;;;1.70;;
64052;SDS011;50299;49.524;8.536;2022-08-04T13:40:57;2.03;;;1.75;;
64052;SDS011;50299;49.524;8.536;2022-08-04T13:43:28;2.13;;;1.92;;
64052;SDS011;50299;49.524;8.536;2022-08-04T13:46:18;4.95;;;2.10;;
64052;SDS011;50299;49.524;8.536;2022-08-04T13:48:53;2.28;;;1.98;;
64052;SDS011;50299;49.524;8.536;2022-08-04T13:51:45;2.35;;;1.60;;
64052;SDS011;50299;49.524;8.536;2022-08-04T13:54:24;1.90;;;1.63;;
64052;SDS011;50299;49.524;8.536;2022-08-04T13:57:13;2.60;;;2.00;;
64052;SDS011;50299;49.524;8.536;2022-08-04T13:59:59;1.70;;;1.55;;
64052;SDS011;50299;49.524;8.536;2022-08-04T14:02:39;1.60;;;1.50;;
64052;SDS011;50299;49.524;8.536;2022-08-04T14:05:24;5.55;;;2.30;;
64052;SDS011;50299;49.524;8.536;2022-08-04T14:08:07;2.00;;;1.90;;
64052;SDS011;50299;49.524;8.536;2022-08-04T14:10:40;3.08;;;2.25;;
64052;SDS011;50299;49.524;8.536;2022-08-04T14:13:09;2.58;;;2.20;;
64052;SDS011;50299;49.524;8.536;2022-08-04T14:15:42;3.90;;;1.80;;
64052;SDS011;50299;49.524;8.536;2022-08-04T14:18:30;2.88;;;1.90;;
64052;SDS011;50299;49.524;8.536;2022-08-04T14:21:05;4.47;;;2.10;;
64052;SDS011;50299;49.524;8.536;2022-08-04T14:23:45;2.17;;;1.88;;
64052;SDS011;50299;49.524;8.536;2022-08-04T14:26:14;3.40;;;2.15;;
64052;SDS011;50299;49.524;8.536;2022-08-04T14:28:40;3.10;;;2.00;;
64052;SDS011;50299;49.524;8.536;2022-08-04T14:31:27;2.58;;;1.95;;
64052;SDS011;50299;49.524;8.536;2022-08-04T14:33:56;2.00;;;1.90;;
64052;SDS011;50299;49.524;8.536;2022-08-04T14:36:41;2.58;;;1.88;;
64052;SDS011;50299;49.524;8.536;2022-08-04T14:40:02;1.92;;;1.75;;
64052;SDS011;50299;49.524;8.536;2022-08-04T14:45:08;3.88;;;2.08;;
64052;SDS011;50299;49.524;8.536;2022-08-04T14:47:45;3.22;;;1.85;;
64052;SDS011;50299;49.524;8.536;2022-08-04T14:50:18;5.05;;;2.45;;
64052;SDS011;50299;49.524;8.536;2022-08-04T14:53:19;2.30;;;1.80;;
64052;SDS011;50299;49.524;8.536;2022-08-04T14:55:47;2.10;;;1.90;;
64052;SDS011;50299;49.524;8.536;2022-08-04T14:58:31;2.00;;;1.90;;
64052;SDS011;50299;49.524;8.536;2022-08-04T15:01:08;2.85;;;1.83;;
64052;SDS011;50299;49.524;8.536;2022-08-04T15:03:39;2.08;;;1.90;;
64052;SDS011;50299;49.524;8.536;2022-08-04T15:06:18;2.58;;;2.00;;
64052;SDS011;50299;49.524;8.536;2022-08-04T15:08:49;2.00;;;1.90;;
64052;SDS011;50299;49.524;8.536;2022-08-04T15:11:16;2.55;;;1.83;;
64052;SDS011;50299;49.524;8.536;2022-08-04T15:13:49;2.22;;;1.75;;
64052;SDS011;50299;49.524;8.536;2022-08-04T15:16:16;2.42;;;2.03;;
64052;SDS011;50299;49.524;8.536;2022-08-04T15:18:43;4.70;;;1.60;;
64052;SDS011;50299;49.524;8.536;2022-08-04T15:21:15;2.20;;;1.80;;
64052;SDS011;50299;49.524;8.536;2022-08-04T15:23:41;2.15;;;1.95;;
64052;SDS011;50299;49.524;8.536;2022-08-04T15:26:09;1.95;;;1.85;;
64052;SDS011;50299;49.524;8.536;2022-08-04T15:28:39;2.38;;;2.03;;
64052;SDS011;50299;49.524;8.536;2022-08-04T15:31:09;2.45;;;1.85;;
64052;SDS011;50299;49.524;8.536;2022-08-04T15:33:56;2.25;;;1.77;;
64052;SDS011;50299;49.524;8.536;2022-08-04T15:39:05;2.10;;;2.00;;
64052;SDS011;50299;49.524;8.536;2022-08-04T15:41:46;1.75;;;1.65;;
64052;SDS011;50299;49.524;8.536;2022-08-04T15:44:41;2.15;;;1.75;;
64052;SDS011;50299;49.524;8.536;2022-08-04T15:47:24;2.28;;;1.75;;
64052;SDS011;50299;49.524;8.536;2022-08-04T15:50:01;2.15;;;1.95;;
64052;SDS011;50299;49.524;8.536;2022-08-04T15:55:36;2.50;;;2.30;;
64052;SDS011;50299;49.524;8.536;2022-08-04T15:58:07;2.22;;;1.60;;
64052;SDS011;50299;49.524;8.536;2022-08-04T16:01:18;2.00;;;1.90;;
64052;SDS011;50299;49.524;8.536;2022-08-04T16:08:58;2.40;;;1.92;;
64052;SDS011;50299;49.524;8.536;2022-08-04T16:16:28;3.20;;;1.90;;
64052;SDS011;50299;49.524;8.536;2022-08-04T16:19:08;2.28;;;2.00;;
64052;SDS011;50299;49.524;8.536;2022-08-04T16:21:54;6.03;;;2.03;;
64052;SDS011;50299;49.524;8.536;2022-08-04T16:27:02;2.00;;;1.88;;
64052;SDS011;50299;49.524;8.536;2022-08-04T16:29:31;2.10;;;1.85;;
64052;SDS011;50299;49.524;8.536;2022-08-04T16:34:30;2.17;;;1.90;;
64052;SDS011;50299;49.524;8.536;2022-08-04T16:37:17;4.05;;;1.95;;
64052;SDS011;50299;49.524;8.536;2022-08-04T16:39:45;3.72;;;2.33;;
64052;SDS011;50299;49.524;8.536;2022-08-04T16:44:59;2.10;;;1.90;;
64052;SDS011;50299;49.524;8.536;2022-08-04T16:47:59;2.40;;;1.80;;
64052;SDS011;50299;49.524;8.536;2022-08-04T16:50:26;2.00;;;1.80;;
64052;SDS011;50299;49.524;8.536;2022-08-04T16:52:53;3.60;;;2.00;;
64052;SDS011;50299;49.524;8.536;2022-08-04T16:55:21;2.05;;;1.95;;
64052;SDS011;50299;49.524;8.536;2022-08-04T16:57:49;2.00;;;1.77;;
64052;SDS011;50299;49.524;8.536;2022-08-04T17:00:26;2.50;;;1.80;;
64052;SDS011;50299;49.524;8.536;2022-08-04T17:03:00;2.00;;;1.90;;
64052;SDS011;50299;49.524;8.536;2022-08-04T17:05:31;1.70;;;1.60;;
64052;SDS011;50299;49.524;8.536;2022-08-04T17:08:05;2.13;;;1.80;;
64052;SDS011;50299;49.524;8.536;2022-08-04T17:10:53;2.80;;;2.00;;
64052;SDS011;50299;49.524;8.536;2022-08-04T17:13:29;2.53;;;2.08;;
64052;SDS011;50299;49.524;8.536;2022-08-04T17:16:18;2.72;;;1.73;;
64052;SDS011;50299;49.524;8.536;2022-08-04T17:18:50;2.55;;;1.90;;
64052;SDS011;50299;49.524;8.536;2022-08-04T17:23:51;2.35;;;2.15;;
64052;SDS011;50299;49.524;8.536;2022-08-04T17:26:40;2.35;;;2.15;;
64052;SDS011;50299;49.524;8.536;2022-08-04T17:29:27;4.00;;;2.15;;
64052;SDS011;50299;49.524;8.536;2022-08-04T17:32:16;1.98;;;1.88;;
64052;SDS011;50299;49.524;8.536;2022-08-04T17:34:47;2.72;;;2.28;;
64052;SDS011;50299;49.524;8.536;2022-08-04T17:37:15;2.00;;;1.90;;
64052;SDS011;50299;49.524;8.536;2022-08-04T17:40:11;2.90;;;1.75;;
64052;SDS011;50299;49.524;8.536;2022-08-04T17:42:39;1.95;;;1.73;;
64052;SDS011;50299;49.524;8.536;2022-08-04T17:47:57;2.25;;;1.92;;
64052;SDS011;50299;49.524;8.536;2022-08-04T17:50:24;2.72;;;1.90;;
64052;SDS011;50299;49.524;8.536;2022-08-04T17:53:01;1.95;;;1.85;;
64052;SDS011;50299;49.524;8.536;2022-08-04T17:55:42;4.30;;;1.90;;
64052;SDS011;50299;49.524;8.536;2022-08-04T17:58:18;2.17;;;1.83;;
64052;SDS011;50299;49.524;8.536;2022-08-04T18:00:48;2.65;;;1.90;;
64052;SDS011;50299;49.524;8.536;2022-08-04T18:03:44;2.78;;;2.00;;
64052;SDS011;50299;49.524;8.536;2022-08-04T18:06:30;9.63;;;2.70;;
64052;SDS011;50299;49.524;8.536;2022-08-04T18:08:59;4.13;;;2.03;;
64052;SDS011;50299;49.524;8.536;2022-08-04T18:11:52;2.45;;;2.03;;
64052;SDS011;50299;49.524;8.536;2022-08-04T18:14:24;2.10;;;2.00;;
64052;SDS011;50299;49.524;8.536;2022-08-04T18:16:54;3.17;;;2.88;;
64052;SDS011;50299;49.524;8.536;2022-08-04T18:19:21;4.15;;;2.00;;
64052;SDS011;50299;49.524;8.536;2022-08-04T18:21:47;3.38;;;2.10;;
64052;SDS011;50299;49.524;8.536;2022-08-04T18:24:29;2.30;;;2.10;;
64052;SDS011;50299;49.524;8.536;2022-08-04T18:27:18;2.35;;;2.08;;
64052;SDS011;50299;49.524;8.536;2022-08-04T18:29:47;3.15;;;2.15;;
64052;SDS011;50299;49.524;8.536;2022-08-04T18:32:33;2.10;;;2.00;;
64052;SDS011;50299;49.524;8.536;2022-08-04T18:35:00;2.85;;;2.25;;
64052;SDS011;50299;49.524;8.536;2022-08-04T18:37:32;3.65;;;1.90;;
64052;SDS011;50299;49.524;8.536;2022-08-04T18:40:23;2.88;;;1.88;;
64052;SDS011;50299;49.524;8.536;2022-08-04T18:42:58;2.88;;;1.83;;
64052;SDS011;50299;49.524;8.536;2022-08-04T18:45:25;2.72;;;2.30;;
64052;SDS011;50299;49.524;8.536;2022-08-04T18:48:00;2.28;;;2.00;;
64052;SDS011;50299;49.524;8.536;2022-08-04T18:50:29;4.60;;;2.33;;
64052;SDS011;50299;49.524;8.536;2022-08-04T18:53:15;2.67;;;2.45;;
64052;SDS011;50299;49.524;8.536;2022-08-04T18:55:42;2.72;;;2.50;;
64052;SDS011;50299;49.524;8.536;2022-08-04T18:58:23;2.60;;;2.40;;
64052;SDS011;50299;49.524;8.536;2022-08-04T19:00:53;2.97;;;2.47;;
64052;SDS011;50299;49.524;8.536;2022-08-04T19:03:20;4.07;;;2.10;;
64052;SDS011;50299;49.524;8.536;2022-08-04T19:05:48;3.15;;;2.85;;
64052;SDS011;50299;49.524;8.536;2022-08-04T19:08:16;2.38;;;2.10;;
64052;SDS011;50299;49.524;8.536;2022-08-04T19:11:00;3.53;;;2.35;;
64052;SDS011;50299;49.524;8.536;2022-08-04T19:13:47;2.80;;;2.30;;
64052;SDS011;50299;49.524;8.536;2022-08-04T19:16:26;5.70;;;2.70;;
64052;SDS011;50299;49.524;8.536;2022-08-04T19:18:55;6.18;;;2.30;;
64052;SDS011;50299;49.524;8.536;2022-08-04T19:21:22;5.20;;;2.50;;
64052;SDS011;50299;49.524;8.536;2022-08-04T19:26:57;7.43;;;4.60;;
64052;SDS011;50299;49.524;8.536;2022-08-04T19:29:24;7.43;;;3.00;;
64052;SDS011;50299;49.524;8.536;2022-08-04T19:32:03;6.95;;;3.25;;
64052;SDS011;50299;49.524;8.536;2022-08-04T19:34:40;3.78;;;2.60;;
64052;SDS011;50299;49.524;8.536;2022-08-04T19:37:11;5.82;;;2.70;;
64052;SDS011;50299;49.524;8.536;2022-08-04T19:39:58;3.78;;;2.55;;
64052;SDS011;50299;49.524;8.536;2022-08-04T19:42:25;5.43;;;2.40;;
64052;SDS011;50299;49.524;8.536;2022-08-04T19:44:52;3.53;;;2.42;;
64052;SDS011;50299;49.524;8.536;2022-08-04T19:47:18;3.13;;;2.75;;
64052;SDS011;50299;49.524;8.536;2022-08-04T19:50:05;3.80;;;3.13;;